sensor_id;sensor_type;location;lat;lon;timestamp;temperature;humidity
20977;DHT22;10647;51.016;3.720;2023-06-01T00:01:41;16.90;99.90
20977;DHT22;10647;51.016;3.720;2023-06-01T00:04:09;16.80;99.90
20977;DHT22;10647;51.016;3.720;2023-06-01T00:06:55;16.80;99.90
20977;DHT22;10647;51.016;3.720;2023-06-01T00:09:23;16.80;99.90
20977;DHT22;10647;51.016;3.720;2023-06-01T00:11:51;16.70;99.90
20977;DHT22;10647;51.016;3.720;2023-06-01T00:14:19;16.70;99.90
20977;DHT22;10647;51.016;3.720;2023-06-01T00:16:47;16.60;99.90
20977;DHT22;10647;51.016;3.720;2023-06-01T00:19:14;16.60;99.90
20977;DHT22;10647;51.016;3.720;2023-06-01T00:21:43;16.50;99.90
20977;DHT22;10647;51.016;3.720;2023-06-01T00:24:11;16.50;99.90
20977;DHT22;10647;51.016;3.720;2023-06-01T00:26:39;16.50;99.90
20977;DHT22;10647;51.016;3.720;2023-06-01T00:29:06;16.50;99.90
20977;DHT22;10647;51.016;3.720;2023-06-01T00:31:34;16.40;99.90
20977;DHT22;10647;51.016;3.720;2023-06-01T00:34:02;16.40;99.90
20977;DHT22;10647;51.016;3.720;2023-06-01T00:36:30;16.40;99.90
20977;DHT22;10647;51.016;3.720;2023-06-01T00:38:57;16.40;99.90
20977;DHT22;10647;51.016;3.720;2023-06-01T00:41:27;16.40;99.90
20977;DHT22;10647;51.016;3.720;2023-06-01T00:43:54;16.40;99.90
20977;DHT22;10647;51.016;3.720;2023-06-01T00:46:22;16.30;99.90
20977;DHT22;10647;51.016;3.720;2023-06-01T00:48:49;16.30;99.90
20977;DHT22;10647;51.016;3.720;2023-06-01T00:51:18;16.20;99.90
20977;DHT22;10647;51.016;3.720;2023-06-01T00:53:46;16.20;99.90
20977;DHT22;10647;51.016;3.720;2023-06-01T00:56:14;16.10;99.90
20977;DHT22;10647;51.016;3.720;2023-06-01T00:58:42;16.10;99.90
20977;DHT22;10647;51.016;3.720;2023-06-01T01:01:10;16.10;99.90
20977;DHT22;10647;51.016;3.720;2023-06-01T01:03:42;16.00;99.90
20977;DHT22;10647;51.016;3.720;2023-06-01T01:06:21;16.00;99.90
20977;DHT22;10647;51.016;3.720;2023-06-01T01:09:14;16.00;99.90
20977;DHT22;10647;51.016;3.720;2023-06-01T01:11:46;15.90;99.90
20977;DHT22;10647;51.016;3.720;2023-06-01T01:14:25;15.80;99.90
20977;DHT22;10647;51.016;3.720;2023-06-01T01:16:59;15.80;99.90
20977;DHT22;10647;51.016;3.720;2023-06-01T01:19:58;15.70;99.90
20977;DHT22;10647;51.016;3.720;2023-06-01T01:28:46;15.60;99.90
20977;DHT22;10647;51.016;3.720;2023-06-01T01:31:17;15.60;99.90
20977;DHT22;10647;51.016;3.720;2023-06-01T01:33:47;15.50;99.90
20977;DHT22;10647;51.016;3.720;2023-06-01T01:36:16;15.40;99.90
20977;DHT22;10647;51.016;3.720;2023-06-01T01:38:44;15.40;99.90
20977;DHT22;10647;51.016;3.720;2023-06-01T01:41:12;15.40;99.90
20977;DHT22;10647;51.016;3.720;2023-06-01T01:43:42;15.40;99.90
20977;DHT22;10647;51.016;3.720;2023-06-01T01:46:28;15.40;99.90
20977;DHT22;10647;51.016;3.720;2023-06-01T01:49:17;15.40;99.90
20977;DHT22;10647;51.016;3.720;2023-06-01T01:54:28;15.30;99.90
20977;DHT22;10647;51.016;3.720;2023-06-01T01:56:58;15.30;99.90
20977;DHT22;10647;51.016;3.720;2023-06-01T01:59:27;15.20;99.90
20977;DHT22;10647;51.016;3.720;2023-06-01T02:01:55;15.30;99.90
20977;DHT22;10647;51.016;3.720;2023-06-01T02:04:26;15.20;99.90
20977;DHT22;10647;51.016;3.720;2023-06-01T02:06:53;15.20;99.90
20977;DHT22;10647;51.016;3.720;2023-06-01T02:09:21;15.00;99.90
20977;DHT22;10647;51.016;3.720;2023-06-01T02:11:48;15.00;99.90
20977;DHT22;10647;51.016;3.720;2023-06-01T02:14:16;15.00;99.90
20977;DHT22;10647;51.016;3.720;2023-06-01T02:16:43;15.00;99.90
20977;DHT22;10647;51.016;3.720;2023-06-01T02:19:12;15.10;99.90
20977;DHT22;10647;51.016;3.720;2023-06-01T02:21:42;15.00;99.90
20977;DHT22;10647;51.016;3.720;2023-06-01T02:24:10;14.90;99.90
20977;DHT22;10647;51.016;3.720;2023-06-01T02:26:37;15.00;99.90
20977;DHT22;10647;51.016;3.720;2023-06-01T02:29:05;15.00;99.90
20977;DHT22;10647;51.016;3.720;2023-06-01T02:31:35;14.90;99.90
20977;DHT22;10647;51.016;3.720;2023-06-01T02:34:02;14.90;99.90
20977;DHT22;10647;51.016;3.720;2023-06-01T02:36:30;14.80;99.90
20977;DHT22;10647;51.016;3.720;2023-06-01T02:41:47;14.80;99.90
20977;DHT22;10647;51.016;3.720;2023-06-01T02:44:14;14.80;99.90
20977;DHT22;10647;51.016;3.720;2023-06-01T02:46:44;14.90;99.90
20977;DHT22;10647;51.016;3.720;2023-06-01T02:49:11;14.90;99.90
20977;DHT22;10647;51.016;3.720;2023-06-01T02:51:39;14.90;99.90
20977;DHT22;10647;51.016;3.720;2023-06-01T02:54:07;14.90;99.90
20977;DHT22;10647;51.016;3.720;2023-06-01T02:56:35;15.00;99.90
20977;DHT22;10647;51.016;3.720;2023-06-01T02:59:03;14.90;99.90
20977;DHT22;10647;51.016;3.720;2023-06-01T03:01:30;14.90;99.90
20977;DHT22;10647;51.016;3.720;2023-06-01T03:04:02;15.00;99.90
20977;DHT22;10647;51.016;3.720;2023-06-01T03:06:34;15.00;99.90
20977;DHT22;10647;51.016;3.720;2023-06-01T03:09:04;14.90;99.90
20977;DHT22;10647;51.016;3.720;2023-06-01T03:11:51;15.00;99.90
20977;DHT22;10647;51.016;3.720;2023-06-01T03:14:24;14.90;99.90
20977;DHT22;10647;51.016;3.720;2023-06-01T03:16:52;14.90;99.90
20977;DHT22;10647;51.016;3.720;2023-06-01T03:19:19;14.90;99.90
20977;DHT22;10647;51.016;3.720;2023-06-01T03:21:47;14.80;99.90
20977;DHT22;10647;51.016;3.720;2023-06-01T03:24:14;14.70;99.90
20977;DHT22;10647;51.016;3.720;2023-06-01T03:26:44;14.60;99.90
20977;DHT22;10647;51.016;3.720;2023-06-01T03:29:11;14.60;99.90
20977;DHT22;10647;51.016;3.720;2023-06-01T03:31:39;14.70;99.90
20977;DHT22;10647;51.016;3.720;2023-06-01T03:34:06;14.70;99.90
20977;DHT22;10647;51.016;3.720;2023-06-01T03:36:34;14.60;99.90
20977;DHT22;10647;51.016;3.720;2023-06-01T03:39:02;14.50;99.90
20977;DHT22;10647;51.016;3.720;2023-06-01T03:41:31;14.50;99.90
20977;DHT22;10647;51.016;3.720;2023-06-01T03:43:59;14.50;99.90
20977;DHT22;10647;51.016;3.720;2023-06-01T03:46:26;14.50;99.90
20977;DHT22;10647;51.016;3.720;2023-06-01T03:48:54;14.50;99.90
20977;DHT22;10647;51.016;3.720;2023-06-01T03:51:22;14.60;99.90
20977;DHT22;10647;51.016;3.720;2023-06-01T03:53:49;14.60;99.90
20977;DHT22;10647;51.016;3.720;2023-06-01T03:56:16;14.50;99.90
20977;DHT22;10647;51.016;3.720;2023-06-01T03:58:46;14.60;99.90
20977;DHT22;10647;51.016;3.720;2023-06-01T04:01:13;14.70;99.90
20977;DHT22;10647;51.016;3.720;2023-06-01T04:03:49;14.80;99.90
20977;DHT22;10647;51.016;3.720;2023-06-01T04:06:16;14.90;99.90
20977;DHT22;10647;51.016;3.720;2023-06-01T04:08:44;14.90;99.90
20977;DHT22;10647;51.016;3.720;2023-06-01T04:11:18;14.90;99.90
20977;DHT22;10647;51.016;3.720;2023-06-01T04:13:45;15.00;99.90
20977;DHT22;10647;51.016;3.720;2023-06-01T04:16:14;15.10;99.90
20977;DHT22;10647;51.016;3.720;2023-06-01T04:18:42;15.20;99.90
20977;DHT22;10647;51.016;3.720;2023-06-01T04:21:10;15.20;99.90
20977;DHT22;10647;51.016;3.720;2023-06-01T04:23:37;15.30;99.90
20977;DHT22;10647;51.016;3.720;2023-06-01T04:26:05;15.50;99.90
20977;DHT22;10647;51.016;3.720;2023-06-01T04:28:36;15.30;99.90
20977;DHT22;10647;51.016;3.720;2023-06-01T04:34:00;15.20;99.90
20977;DHT22;10647;51.016;3.720;2023-06-01T04:36:34;15.20;99.90
20977;DHT22;10647;51.016;3.720;2023-06-01T04:39:03;15.30;99.90
20977;DHT22;10647;51.016;3.720;2023-06-01T04:41:33;15.30;99.90
20977;DHT22;10647;51.016;3.720;2023-06-01T04:44:02;15.30;99.90
20977;DHT22;10647;51.016;3.720;2023-06-01T04:46:34;15.40;99.90
20977;DHT22;10647;51.016;3.720;2023-06-01T04:49:03;15.50;99.90
20977;DHT22;10647;51.016;3.720;2023-06-01T04:51:31;15.60;99.90
20977;DHT22;10647;51.016;3.720;2023-06-01T04:53:59;15.60;99.90
20977;DHT22;10647;51.016;3.720;2023-06-01T04:56:31;15.70;99.90
20977;DHT22;10647;51.016;3.720;2023-06-01T04:58:59;15.80;99.90
20977;DHT22;10647;51.016;3.720;2023-06-01T05:01:28;15.90;99.90
20977;DHT22;10647;51.016;3.720;2023-06-01T05:03:57;15.90;99.90
20977;DHT22;10647;51.016;3.720;2023-06-01T05:06:27;16.00;99.90
20977;DHT22;10647;51.016;3.720;2023-06-01T05:08:54;16.00;99.90
20977;DHT22;10647;51.016;3.720;2023-06-01T05:11:23;16.00;99.90
20977;DHT22;10647;51.016;3.720;2023-06-01T05:13:52;16.10;99.90
20977;DHT22;10647;51.016;3.720;2023-06-01T05:16:21;16.00;99.90
20977;DHT22;10647;51.016;3.720;2023-06-01T05:18:50;16.00;99.90
20977;DHT22;10647;51.016;3.720;2023-06-01T05:21:18;15.90;99.90
20977;DHT22;10647;51.016;3.720;2023-06-01T05:23:49;15.80;99.90
20977;DHT22;10647;51.016;3.720;2023-06-01T05:26:19;16.00;99.90
20977;DHT22;10647;51.016;3.720;2023-06-01T05:28:50;16.20;99.90
20977;DHT22;10647;51.016;3.720;2023-06-01T05:31:20;16.30;99.90
20977;DHT22;10647;51.016;3.720;2023-06-01T05:33:53;16.30;99.90
20977;DHT22;10647;51.016;3.720;2023-06-01T05:36:21;16.50;99.90
20977;DHT22;10647;51.016;3.720;2023-06-01T05:38:49;16.70;99.90
20977;DHT22;10647;51.016;3.720;2023-06-01T05:41:16;16.90;99.90
20977;DHT22;10647;51.016;3.720;2023-06-01T05:43:44;17.10;99.90
20977;DHT22;10647;51.016;3.720;2023-06-01T05:46:11;17.00;99.90
20977;DHT22;10647;51.016;3.720;2023-06-01T05:48:40;16.60;99.90
20977;DHT22;10647;51.016;3.720;2023-06-01T05:51:09;16.50;99.90
20977;DHT22;10647;51.016;3.720;2023-06-01T05:53:36;16.60;99.90
20977;DHT22;10647;51.016;3.720;2023-06-01T05:56:04;16.60;99.90
20977;DHT22;10647;51.016;3.720;2023-06-01T05:58:31;16.60;99.90
20977;DHT22;10647;51.016;3.720;2023-06-01T06:01:00;16.90;99.90
20977;DHT22;10647;51.016;3.720;2023-06-01T06:03:28;17.10;99.90
20977;DHT22;10647;51.016;3.720;2023-06-01T06:05:57;17.20;99.90
20977;DHT22;10647;51.016;3.720;2023-06-01T06:08:25;17.30;99.90
20977;DHT22;10647;51.016;3.720;2023-06-01T06:10:53;17.20;99.90
20977;DHT22;10647;51.016;3.720;2023-06-01T06:13:21;17.10;99.90
20977;DHT22;10647;51.016;3.720;2023-06-01T06:15:50;17.10;99.90
20977;DHT22;10647;51.016;3.720;2023-06-01T06:18:17;17.00;99.90
20977;DHT22;10647;51.016;3.720;2023-06-01T06:20:46;17.30;99.90
20977;DHT22;10647;51.016;3.720;2023-06-01T06:23:14;17.30;99.90
20977;DHT22;10647;51.016;3.720;2023-06-01T06:25:41;17.50;99.90
20977;DHT22;10647;51.016;3.720;2023-06-01T06:28:11;17.60;99.90
20977;DHT22;10647;51.016;3.720;2023-06-01T06:30:38;17.70;99.90
20977;DHT22;10647;51.016;3.720;2023-06-01T06:33:06;17.90;99.90
20977;DHT22;10647;51.016;3.720;2023-06-01T06:35:34;18.00;99.90
20977;DHT22;10647;51.016;3.720;2023-06-01T06:38:03;18.00;99.90
20977;DHT22;10647;51.016;3.720;2023-06-01T06:40:31;18.10;99.90
20977;DHT22;10647;51.016;3.720;2023-06-01T06:42:58;18.20;99.90
20977;DHT22;10647;51.016;3.720;2023-06-01T06:45:25;18.10;99.90
20977;DHT22;10647;51.016;3.720;2023-06-01T06:47:53;18.20;99.90
20977;DHT22;10647;51.016;3.720;2023-06-01T06:50:21;18.10;99.90
20977;DHT22;10647;51.016;3.720;2023-06-01T06:52:48;18.10;99.90
20977;DHT22;10647;51.016;3.720;2023-06-01T06:55:16;18.10;99.90
20977;DHT22;10647;51.016;3.720;2023-06-01T06:57:44;18.10;99.90
20977;DHT22;10647;51.016;3.720;2023-06-01T07:00:12;18.00;99.90
20977;DHT22;10647;51.016;3.720;2023-06-01T07:02:42;18.10;99.90
20977;DHT22;10647;51.016;3.720;2023-06-01T07:05:11;17.80;99.90
20977;DHT22;10647;51.016;3.720;2023-06-01T07:07:40;17.80;99.90
20977;DHT22;10647;51.016;3.720;2023-06-01T07:10:08;17.80;99.90
20977;DHT22;10647;51.016;3.720;2023-06-01T07:12:36;17.50;99.90
20977;DHT22;10647;51.016;3.720;2023-06-01T07:15:04;17.60;99.90
20977;DHT22;10647;51.016;3.720;2023-06-01T07:17:31;17.60;99.90
20977;DHT22;10647;51.016;3.720;2023-06-01T07:20:02;17.60;99.90
20977;DHT22;10647;51.016;3.720;2023-06-01T07:22:33;17.80;99.90
20977;DHT22;10647;51.016;3.720;2023-06-01T07:25:01;17.90;99.90
20977;DHT22;10647;51.016;3.720;2023-06-01T07:27:28;18.00;99.90
20977;DHT22;10647;51.016;3.720;2023-06-01T07:29:56;18.20;99.90
20977;DHT22;10647;51.016;3.720;2023-06-01T07:32:24;18.30;99.90
20977;DHT22;10647;51.016;3.720;2023-06-01T07:34:54;18.20;99.90
20977;DHT22;10647;51.016;3.720;2023-06-01T07:37:23;18.30;99.90
20977;DHT22;10647;51.016;3.720;2023-06-01T07:39:53;18.40;99.90
20977;DHT22;10647;51.016;3.720;2023-06-01T07:42:21;18.60;99.90
20977;DHT22;10647;51.016;3.720;2023-06-01T07:44:49;18.60;99.90
20977;DHT22;10647;51.016;3.720;2023-06-01T07:47:17;18.70;99.90
20977;DHT22;10647;51.016;3.720;2023-06-01T07:49:44;18.80;99.90
20977;DHT22;10647;51.016;3.720;2023-06-01T07:52:12;18.80;99.90
20977;DHT22;10647;51.016;3.720;2023-06-01T07:54:40;18.90;99.90
20977;DHT22;10647;51.016;3.720;2023-06-01T07:57:08;18.90;99.90
20977;DHT22;10647;51.016;3.720;2023-06-01T07:59:36;18.90;99.90
20977;DHT22;10647;51.016;3.720;2023-06-01T08:02:04;18.90;99.90
20977;DHT22;10647;51.016;3.720;2023-06-01T08:04:31;19.00;99.90
20977;DHT22;10647;51.016;3.720;2023-06-01T08:07:02;19.00;99.90
20977;DHT22;10647;51.016;3.720;2023-06-01T08:09:29;19.00;99.90
20977;DHT22;10647;51.016;3.720;2023-06-01T08:11:58;19.10;99.90
20977;DHT22;10647;51.016;3.720;2023-06-01T08:14:26;19.10;99.90
20977;DHT22;10647;51.016;3.720;2023-06-01T08:16:54;19.20;99.90
20977;DHT22;10647;51.016;3.720;2023-06-01T08:19:24;19.30;99.90
20977;DHT22;10647;51.016;3.720;2023-06-01T08:21:53;19.30;99.90
20977;DHT22;10647;51.016;3.720;2023-06-01T08:24:21;19.40;99.90
20977;DHT22;10647;51.016;3.720;2023-06-01T08:26:49;19.40;99.90
20977;DHT22;10647;51.016;3.720;2023-06-01T08:29:17;19.50;99.90
20977;DHT22;10647;51.016;3.720;2023-06-01T08:31:44;19.50;99.90
20977;DHT22;10647;51.016;3.720;2023-06-01T08:34:12;19.60;99.90
20977;DHT22;10647;51.016;3.720;2023-06-01T08:36:39;19.70;99.90
20977;DHT22;10647;51.016;3.720;2023-06-01T08:39:23;19.80;99.90
20977;DHT22;10647;51.016;3.720;2023-06-01T08:44:39;19.90;99.90
20977;DHT22;10647;51.016;3.720;2023-06-01T08:47:08;19.90;99.90
20977;DHT22;10647;51.016;3.720;2023-06-01T08:49:36;20.00;99.90
20977;DHT22;10647;51.016;3.720;2023-06-01T08:55:01;20.00;99.90
20977;DHT22;10647;51.016;3.720;2023-06-01T08:57:31;20.00;99.90
20977;DHT22;10647;51.016;3.720;2023-06-01T08:59:59;20.10;99.90
20977;DHT22;10647;51.016;3.720;2023-06-01T09:02:26;20.20;99.90
20977;DHT22;10647;51.016;3.720;2023-06-01T09:04:55;20.20;99.90
20977;DHT22;10647;51.016;3.720;2023-06-01T09:07:26;20.40;99.90
20977;DHT22;10647;51.016;3.720;2023-06-01T09:09:55;20.40;99.90
20977;DHT22;10647;51.016;3.720;2023-06-01T09:12:26;20.50;99.90
20977;DHT22;10647;51.016;3.720;2023-06-01T09:15:10;20.30;99.90
20977;DHT22;10647;51.016;3.720;2023-06-01T09:17:39;20.30;99.90
20977;DHT22;10647;51.016;3.720;2023-06-01T09:23:07;20.50;99.90
20977;DHT22;10647;51.016;3.720;2023-06-01T09:25:35;20.50;99.90
20977;DHT22;10647;51.016;3.720;2023-06-01T09:28:02;20.40;99.90
20977;DHT22;10647;51.016;3.720;2023-06-01T09:33:29;20.70;99.90
20977;DHT22;10647;51.016;3.720;2023-06-01T09:36:04;20.80;99.90
20977;DHT22;10647;51.016;3.720;2023-06-01T09:38:32;20.90;99.90
20977;DHT22;10647;51.016;3.720;2023-06-01T09:41:03;21.00;99.90
20977;DHT22;10647;51.016;3.720;2023-06-01T09:43:35;21.00;99.90
20977;DHT22;10647;51.016;3.720;2023-06-01T09:49:07;21.00;99.90
20977;DHT22;10647;51.016;3.720;2023-06-01T09:51:35;21.10;99.90
20977;DHT22;10647;51.016;3.720;2023-06-01T09:54:02;21.30;99.90
20977;DHT22;10647;51.016;3.720;2023-06-01T09:56:43;21.50;99.90
20977;DHT22;10647;51.016;3.720;2023-06-01T09:59:11;21.60;99.90
20977;DHT22;10647;51.016;3.720;2023-06-01T10:01:42;21.70;99.90
20977;DHT22;10647;51.016;3.720;2023-06-01T10:04:11;21.80;99.90
20977;DHT22;10647;51.016;3.720;2023-06-01T10:06:40;21.90;99.90
20977;DHT22;10647;51.016;3.720;2023-06-01T10:09:11;22.00;99.90
20977;DHT22;10647;51.016;3.720;2023-06-01T10:11:43;22.10;99.90
20977;DHT22;10647;51.016;3.720;2023-06-01T10:14:11;22.10;99.90
20977;DHT22;10647;51.016;3.720;2023-06-01T10:16:39;22.10;99.60
20977;DHT22;10647;51.016;3.720;2023-06-01T10:19:08;22.10;99.90
20977;DHT22;10647;51.016;3.720;2023-06-01T10:21:37;22.20;99.90
20977;DHT22;10647;51.016;3.720;2023-06-01T10:24:07;22.40;99.80
20977;DHT22;10647;51.016;3.720;2023-06-01T10:27:00;22.40;99.70
20977;DHT22;10647;51.016;3.720;2023-06-01T10:29:29;22.50;98.80
20977;DHT22;10647;51.016;3.720;2023-06-01T10:31:57;22.50;98.80
20977;DHT22;10647;51.016;3.720;2023-06-01T10:34:42;22.50;98.90
20977;DHT22;10647;51.016;3.720;2023-06-01T10:37:14;22.50;98.90
20977;DHT22;10647;51.016;3.720;2023-06-01T10:39:42;22.60;99.00
20977;DHT22;10647;51.016;3.720;2023-06-01T10:44:46;22.70;98.80
20977;DHT22;10647;51.016;3.720;2023-06-01T10:52:37;23.10;97.80
20977;DHT22;10647;51.016;3.720;2023-06-01T10:57:43;23.00;97.60
20977;DHT22;10647;51.016;3.720;2023-06-01T11:00:22;23.10;97.70
20977;DHT22;10647;51.016;3.720;2023-06-01T11:03:04;23.20;97.70
20977;DHT22;10647;51.016;3.720;2023-06-01T11:05:41;23.20;98.30
20977;DHT22;10647;51.016;3.720;2023-06-01T11:10:55;23.20;97.70
20977;DHT22;10647;51.016;3.720;2023-06-01T11:13:35;23.40;97.40
20977;DHT22;10647;51.016;3.720;2023-06-01T11:18:54;23.30;96.90
20977;DHT22;10647;51.016;3.720;2023-06-01T11:21:42;23.30;97.10
20977;DHT22;10647;51.016;3.720;2023-06-01T11:24:12;23.50;96.90
20977;DHT22;10647;51.016;3.720;2023-06-01T11:26:43;23.60;95.70
20977;DHT22;10647;51.016;3.720;2023-06-01T11:31:48;23.40;95.10
20977;DHT22;10647;51.016;3.720;2023-06-01T11:34:17;23.60;94.80
20977;DHT22;10647;51.016;3.720;2023-06-01T11:36:48;23.80;94.80
20977;DHT22;10647;51.016;3.720;2023-06-01T11:39:23;24.10;94.10
20977;DHT22;10647;51.016;3.720;2023-06-01T11:42:11;24.50;93.70
20977;DHT22;10647;51.016;3.720;2023-06-01T11:44:40;24.40;92.90
20977;DHT22;10647;51.016;3.720;2023-06-01T11:47:10;24.40;92.70
20977;DHT22;10647;51.016;3.720;2023-06-01T11:49:44;24.50;92.80
20977;DHT22;10647;51.016;3.720;2023-06-01T11:52:15;24.60;92.80
20977;DHT22;10647;51.016;3.720;2023-06-01T11:54:43;24.40;92.90
20977;DHT22;10647;51.016;3.720;2023-06-01T11:57:12;24.30;92.70
20977;DHT22;10647;51.016;3.720;2023-06-01T11:59:46;24.20;93.00
20977;DHT22;10647;51.016;3.720;2023-06-01T12:02:26;24.20;92.90
20977;DHT22;10647;51.016;3.720;2023-06-01T12:04:58;24.20;92.80
20977;DHT22;10647;51.016;3.720;2023-06-01T12:07:28;24.10;92.70
20977;DHT22;10647;51.016;3.720;2023-06-01T12:09:56;24.20;92.90
20977;DHT22;10647;51.016;3.720;2023-06-01T12:12:28;24.50;92.70
20977;DHT22;10647;51.016;3.720;2023-06-01T12:14:56;24.30;92.20
20977;DHT22;10647;51.016;3.720;2023-06-01T12:17:51;24.40;92.40
20977;DHT22;10647;51.016;3.720;2023-06-01T12:20:00;24.20;92.30
20977;DHT22;10647;51.016;3.720;2023-06-01T12:22:30;24.20;92.40
20977;DHT22;10647;51.016;3.720;2023-06-01T12:25:04;24.50;92.30
20977;DHT22;10647;51.016;3.720;2023-06-01T12:27:30;24.50;91.70
20977;DHT22;10647;51.016;3.720;2023-06-01T12:29:58;24.70;92.20
20977;DHT22;10647;51.016;3.720;2023-06-01T12:32:37;25.00;91.80
20977;DHT22;10647;51.016;3.720;2023-06-01T12:35:04;25.10;91.00
20977;DHT22;10647;51.016;3.720;2023-06-01T12:37:35;25.20;91.10
20977;DHT22;10647;51.016;3.720;2023-06-01T12:40:02;25.30;91.10
20977;DHT22;10647;51.016;3.720;2023-06-01T12:42:36;25.30;91.20
20977;DHT22;10647;51.016;3.720;2023-06-01T12:45:05;25.40;90.80
20977;DHT22;10647;51.016;3.720;2023-06-01T12:47:41;25.20;90.90
20977;DHT22;10647;51.016;3.720;2023-06-01T12:50:11;25.20;90.90
20977;DHT22;10647;51.016;3.720;2023-06-01T12:52:39;25.30;90.70
20977;DHT22;10647;51.016;3.720;2023-06-01T12:55:08;25.50;90.50
20977;DHT22;10647;51.016;3.720;2023-06-01T12:57:37;25.50;90.20
20977;DHT22;10647;51.016;3.720;2023-06-01T13:00:08;26.20;89.40
20977;DHT22;10647;51.016;3.720;2023-06-01T13:02:36;29.00;84.60
20977;DHT22;10647;51.016;3.720;2023-06-01T13:05:05;33.40;75.30
20977;DHT22;10647;51.016;3.720;2023-06-01T13:07:34;35.80;66.70
20977;DHT22;10647;51.016;3.720;2023-06-01T13:10:05;37.40;59.20
20977;DHT22;10647;51.016;3.720;2023-06-01T13:12:34;38.80;55.10
20977;DHT22;10647;51.016;3.720;2023-06-01T13:15:03;40.10;52.10
20977;DHT22;10647;51.016;3.720;2023-06-01T13:17:30;40.60;48.30
20977;DHT22;10647;51.016;3.720;2023-06-01T13:19:58;40.80;47.50
20977;DHT22;10647;51.016;3.720;2023-06-01T13:22:26;40.20;46.30
20977;DHT22;10647;51.016;3.720;2023-06-01T13:24:53;40.90;45.30
20977;DHT22;10647;51.016;3.720;2023-06-01T13:27:21;40.90;44.50
20977;DHT22;10647;51.016;3.720;2023-06-01T13:29:48;41.10;43.50
20977;DHT22;10647;51.016;3.720;2023-06-01T13:32:16;41.00;43.60
20977;DHT22;10647;51.016;3.720;2023-06-01T13:34:44;41.10;42.90
20977;DHT22;10647;51.016;3.720;2023-06-01T13:37:11;41.50;43.40
20977;DHT22;10647;51.016;3.720;2023-06-01T13:39:39;42.10;42.90
20977;DHT22;10647;51.016;3.720;2023-06-01T13:42:07;41.90;42.30
20977;DHT22;10647;51.016;3.720;2023-06-01T13:44:34;42.20;42.70
20977;DHT22;10647;51.016;3.720;2023-06-01T13:47:02;41.90;42.60
20977;DHT22;10647;51.016;3.720;2023-06-01T13:49:30;42.00;42.80
20977;DHT22;10647;51.016;3.720;2023-06-01T13:51:58;42.00;42.60
20977;DHT22;10647;51.016;3.720;2023-06-01T13:54:26;42.20;42.70
20977;DHT22;10647;51.016;3.720;2023-06-01T13:56:53;42.40;42.40
20977;DHT22;10647;51.016;3.720;2023-06-01T13:59:23;42.30;41.80
20977;DHT22;10647;51.016;3.720;2023-06-01T14:01:57;42.20;41.80
20977;DHT22;10647;51.016;3.720;2023-06-01T14:04:24;42.10;41.60
20977;DHT22;10647;51.016;3.720;2023-06-01T14:06:54;42.10;42.20
20977;DHT22;10647;51.016;3.720;2023-06-01T14:09:22;42.30;41.90
20977;DHT22;10647;51.016;3.720;2023-06-01T14:11:50;43.20;41.30
20977;DHT22;10647;51.016;3.720;2023-06-01T14:14:18;43.00;40.40
20977;DHT22;10647;51.016;3.720;2023-06-01T14:16:45;43.30;40.80
20977;DHT22;10647;51.016;3.720;2023-06-01T14:19:13;43.60;40.40
20977;DHT22;10647;51.016;3.720;2023-06-01T14:21:41;43.60;40.20
20977;DHT22;10647;51.016;3.720;2023-06-01T14:24:09;43.80;39.90
20977;DHT22;10647;51.016;3.720;2023-06-01T14:26:36;43.70;39.60
20977;DHT22;10647;51.016;3.720;2023-06-01T14:29:04;43.40;39.90
20977;DHT22;10647;51.016;3.720;2023-06-01T14:31:31;42.80;40.00
20977;DHT22;10647;51.016;3.720;2023-06-01T14:33:59;43.20;39.80
20977;DHT22;10647;51.016;3.720;2023-06-01T14:36:27;43.30;39.70
20977;DHT22;10647;51.016;3.720;2023-06-01T14:38:54;43.30;38.80
20977;DHT22;10647;51.016;3.720;2023-06-01T14:41:22;43.30;39.10
20977;DHT22;10647;51.016;3.720;2023-06-01T14:43:49;43.80;38.80
20977;DHT22;10647;51.016;3.720;2023-06-01T14:46:17;44.00;38.30
20977;DHT22;10647;51.016;3.720;2023-06-01T14:48:46;44.30;37.90
20977;DHT22;10647;51.016;3.720;2023-06-01T14:51:14;44.00;38.00
20977;DHT22;10647;51.016;3.720;2023-06-01T14:53:41;43.40;38.50
20977;DHT22;10647;51.016;3.720;2023-06-01T14:56:10;43.20;38.60
20977;DHT22;10647;51.016;3.720;2023-06-01T14:58:37;42.80;38.90
20977;DHT22;10647;51.016;3.720;2023-06-01T15:01:05;42.60;39.40
20977;DHT22;10647;51.016;3.720;2023-06-01T15:03:33;43.10;38.90
20977;DHT22;10647;51.016;3.720;2023-06-01T15:06:01;42.60;38.70
20977;DHT22;10647;51.016;3.720;2023-06-01T15:08:29;42.80;39.00
20977;DHT22;10647;51.016;3.720;2023-06-01T15:10:56;43.00;38.40
20977;DHT22;10647;51.016;3.720;2023-06-01T15:13:25;43.10;38.30
20977;DHT22;10647;51.016;3.720;2023-06-01T15:15:52;42.10;38.80
20977;DHT22;10647;51.016;3.720;2023-06-01T15:18:21;42.10;39.30
20977;DHT22;10647;51.016;3.720;2023-06-01T15:20:48;42.80;38.50
20977;DHT22;10647;51.016;3.720;2023-06-01T15:23:18;42.10;38.40
20977;DHT22;10647;51.016;3.720;2023-06-01T15:25:48;41.80;39.30
20977;DHT22;10647;51.016;3.720;2023-06-01T15:28:17;41.00;39.40
20977;DHT22;10647;51.016;3.720;2023-06-01T15:30:48;40.90;40.20
20977;DHT22;10647;51.016;3.720;2023-06-01T15:33:16;41.50;39.80
20977;DHT22;10647;51.016;3.720;2023-06-01T15:35:43;40.20;39.80
20977;DHT22;10647;51.016;3.720;2023-06-01T15:38:11;39.10;41.10
20977;DHT22;10647;51.016;3.720;2023-06-01T15:40:38;37.90;42.50
20977;DHT22;10647;51.016;3.720;2023-06-01T15:43:06;36.30;44.30
20977;DHT22;10647;51.016;3.720;2023-06-01T15:45:34;34.10;47.10
20977;DHT22;10647;51.016;3.720;2023-06-01T15:48:01;32.60;49.20
20977;DHT22;10647;51.016;3.720;2023-06-01T15:50:34;30.70;51.80
20977;DHT22;10647;51.016;3.720;2023-06-01T15:52:58;29.60;54.10
20977;DHT22;10647;51.016;3.720;2023-06-01T15:55:25;28.80;55.90
20977;DHT22;10647;51.016;3.720;2023-06-01T15:57:53;28.00;57.30
20977;DHT22;10647;51.016;3.720;2023-06-01T16:00:21;27.30;58.70
20977;DHT22;10647;51.016;3.720;2023-06-01T16:02:53;26.30;60.70
20977;DHT22;10647;51.016;3.720;2023-06-01T16:05:20;25.90;62.30
20977;DHT22;10647;51.016;3.720;2023-06-01T16:07:48;25.30;64.10
20977;DHT22;10647;51.016;3.720;2023-06-01T16:10:15;25.20;64.80
20977;DHT22;10647;51.016;3.720;2023-06-01T16:12:45;25.10;65.50
20977;DHT22;10647;51.016;3.720;2023-06-01T16:15:12;24.80;66.30
20977;DHT22;10647;51.016;3.720;2023-06-01T16:17:40;24.60;67.00
20977;DHT22;10647;51.016;3.720;2023-06-01T16:20:08;24.40;67.70
20977;DHT22;10647;51.016;3.720;2023-06-01T16:22:35;24.30;68.20
20977;DHT22;10647;51.016;3.720;2023-06-01T16:25:04;24.20;69.50
20977;DHT22;10647;51.016;3.720;2023-06-01T16:27:31;24.00;70.00
20977;DHT22;10647;51.016;3.720;2023-06-01T16:29:59;23.80;70.70
20977;DHT22;10647;51.016;3.720;2023-06-01T16:32:33;23.70;71.40